sensor_id;sensor_type;location;lat;lon;timestamp;P1;durP1;ratioP1;P2;durP2;ratioP2
7158;SDS011;63175;52.374;13.132;2023-09-19T00:01:39;2.13;;;1.40;;
7158;SDS011;63175;52.374;13.132;2023-09-19T00:04:07;1.20;;;1.20;;
7158;SDS011;63175;52.374;13.132;2023-09-19T00:06:34;1.40;;;1.30;;
7158;SDS011;63175;52.374;13.132;2023-09-19T00:09:02;1.60;;;1.50;;
7158;SDS011;63175;52.374;13.132;2023-09-19T00:11:29;1.47;;;1.13;;
7158;SDS011;63175;52.374;13.132;2023-09-19T00:13:56;1.40;;;1.30;;
7158;SDS011;63175;52.374;13.132;2023-09-19T00:16:24;1.33;;;1.23;;
7158;SDS011;63175;52.374;13.132;2023-09-19T00:18:52;1.57;;;1.47;;
7158;SDS011;63175;52.374;13.132;2023-09-19T00:21:20;1.70;;;1.60;;
7158;SDS011;63175;52.374;13.132;2023-09-19T00:23:47;1.67;;;1.40;;
7158;SDS011;63175;52.374;13.132;2023-09-19T00:26:14;3.63;;;1.73;;
7158;SDS011;63175;52.374;13.132;2023-09-19T00:28:42;2.20;;;1.40;;
7158;SDS011;63175;52.374;13.132;2023-09-19T00:31:09;1.60;;;1.50;;
7158;SDS011;63175;52.374;13.132;2023-09-19T00:33:36;1.30;;;1.20;;
7158;SDS011;63175;52.374;13.132;2023-09-19T00:36:03;1.53;;;1.43;;
7158;SDS011;63175;52.374;13.132;2023-09-19T00:38:32;2.03;;;1.40;;
7158;SDS011;63175;52.374;13.132;2023-09-19T00:40:59;2.03;;;1.10;;
7158;SDS011;63175;52.374;13.132;2023-09-19T00:43:26;2.27;;;1.67;;
7158;SDS011;63175;52.374;13.132;2023-09-19T00:45:54;1.43;;;1.33;;
7158;SDS011;63175;52.374;13.132;2023-09-19T00:48:21;2.03;;;1.47;;
7158;SDS011;63175;52.374;13.132;2023-09-19T00:50:53;1.50;;;1.40;;
7158;SDS011;63175;52.374;13.132;2023-09-19T00:53:23;1.93;;;1.70;;
7158;SDS011;63175;52.374;13.132;2023-09-19T00:55:53;1.67;;;1.57;;
7158;SDS011;63175;52.374;13.132;2023-09-19T00:58:21;3.20;;;1.70;;
7158;SDS011;63175;52.374;13.132;2023-09-19T01:00:48;1.60;;;1.50;;
7158;SDS011;63175;52.374;13.132;2023-09-19T01:03:16;4.40;;;1.40;;
7158;SDS011;63175;52.374;13.132;2023-09-19T01:05:43;1.70;;;1.60;;
7158;SDS011;63175;52.374;13.132;2023-09-19T01:08:10;3.23;;;1.80;;
7158;SDS011;63175;52.374;13.132;2023-09-19T01:10:37;1.80;;;1.63;;
7158;SDS011;63175;52.374;13.132;2023-09-19T01:13:16;1.43;;;1.20;;
7158;SDS011;63175;52.374;13.132;2023-09-19T01:15:51;1.30;;;1.20;;
7158;SDS011;63175;52.374;13.132;2023-09-19T01:18:27;1.03;;;1.03;;
7158;SDS011;63175;52.374;13.132;2023-09-19T01:21:04;1.50;;;1.40;;
7158;SDS011;63175;52.374;13.132;2023-09-19T01:23:39;1.43;;;1.33;;
7158;SDS011;63175;52.374;13.132;2023-09-19T01:26:27;2.27;;;1.20;;
7158;SDS011;63175;52.374;13.132;2023-09-19T01:29:12;1.40;;;1.30;;
7158;SDS011;63175;52.374;13.132;2023-09-19T01:31:55;1.47;;;1.03;;
7158;SDS011;63175;52.374;13.132;2023-09-19T01:34:26;4.53;;;1.47;;
7158;SDS011;63175;52.374;13.132;2023-09-19T01:36:53;3.20;;;1.47;;
7158;SDS011;63175;52.374;13.132;2023-09-19T01:39:20;1.30;;;1.20;;
7158;SDS011;63175;52.374;13.132;2023-09-19T01:41:51;1.40;;;1.30;;
7158;SDS011;63175;52.374;13.132;2023-09-19T01:44:27;1.83;;;1.63;;
7158;SDS011;63175;52.374;13.132;2023-09-19T01:47:07;2.30;;;1.13;;
7158;SDS011;63175;52.374;13.132;2023-09-19T01:49:44;1.53;;;1.43;;
7158;SDS011;63175;52.374;13.132;2023-09-19T01:52:22;2.90;;;1.43;;
7158;SDS011;63175;52.374;13.132;2023-09-19T01:54:57;3.70;;;1.17;;
7158;SDS011;63175;52.374;13.132;2023-09-19T01:57:32;4.60;;;1.30;;
7158;SDS011;63175;52.374;13.132;2023-09-19T02:00:05;1.83;;;1.43;;
7158;SDS011;63175;52.374;13.132;2023-09-19T02:02:35;1.47;;;1.37;;
7158;SDS011;63175;52.374;13.132;2023-09-19T02:05:03;2.40;;;1.30;;
7158;SDS011;63175;52.374;13.132;2023-09-19T02:07:31;1.50;;;1.37;;
7158;SDS011;63175;52.374;13.132;2023-09-19T02:09:58;2.97;;;1.30;;
7158;SDS011;63175;52.374;13.132;2023-09-19T02:12:25;1.63;;;1.53;;
7158;SDS011;63175;52.374;13.132;2023-09-19T02:14:52;1.10;;;1.10;;
7158;SDS011;63175;52.374;13.132;2023-09-19T02:17:19;1.77;;;1.20;;
7158;SDS011;63175;52.374;13.132;2023-09-19T02:19:47;1.87;;;1.77;;
7158;SDS011;63175;52.374;13.132;2023-09-19T02:22:14;1.30;;;1.20;;
7158;SDS011;63175;52.374;13.132;2023-09-19T02:24:41;2.10;;;1.40;;
7158;SDS011;63175;52.374;13.132;2023-09-19T02:27:08;2.50;;;1.43;;
7158;SDS011;63175;52.374;13.132;2023-09-19T02:29:37;1.83;;;1.67;;
7158;SDS011;63175;52.374;13.132;2023-09-19T02:32:04;1.13;;;1.13;;
7158;SDS011;63175;52.374;13.132;2023-09-19T02:34:31;1.30;;;1.20;;
7158;SDS011;63175;52.374;13.132;2023-09-19T02:37:02;2.20;;;1.00;;
7158;SDS011;63175;52.374;13.132;2023-09-19T02:39:31;1.63;;;1.30;;
7158;SDS011;63175;52.374;13.132;2023-09-19T02:41:58;1.30;;;1.20;;
7158;SDS011;63175;52.374;13.132;2023-09-19T02:44:25;3.47;;;1.20;;
7158;SDS011;63175;52.374;13.132;2023-09-19T02:46:52;1.63;;;1.37;;
7158;SDS011;63175;52.374;13.132;2023-09-19T02:49:19;1.13;;;1.03;;
7158;SDS011;63175;52.374;13.132;2023-09-19T02:51:46;1.30;;;1.20;;
7158;SDS011;63175;52.374;13.132;2023-09-19T02:54:14;2.40;;;1.77;;
7158;SDS011;63175;52.374;13.132;2023-09-19T02:56:42;2.30;;;1.50;;
7158;SDS011;63175;52.374;13.132;2023-09-19T02:59:09;1.33;;;1.23;;
7158;SDS011;63175;52.374;13.132;2023-09-19T03:01:36;1.23;;;1.13;;
7158;SDS011;63175;52.374;13.132;2023-09-19T03:04:04;2.23;;;1.43;;
7158;SDS011;63175;52.374;13.132;2023-09-19T03:06:36;1.50;;;1.40;;
7158;SDS011;63175;52.374;13.132;2023-09-19T03:09:03;1.70;;;1.60;;
7158;SDS011;63175;52.374;13.132;2023-09-19T03:11:40;2.00;;;1.73;;
7158;SDS011;63175;52.374;13.132;2023-09-19T03:14:07;1.40;;;1.30;;
7158;SDS011;63175;52.374;13.132;2023-09-19T03:16:35;3.00;;;1.50;;
7158;SDS011;63175;52.374;13.132;2023-09-19T03:19:02;4.23;;;1.40;;
7158;SDS011;63175;52.374;13.132;2023-09-19T03:21:30;1.60;;;1.50;;
7158;SDS011;63175;52.374;13.132;2023-09-19T03:23:57;1.40;;;1.30;;
7158;SDS011;63175;52.374;13.132;2023-09-19T03:26:24;1.93;;;1.40;;
7158;SDS011;63175;52.374;13.132;2023-09-19T03:28:53;3.37;;;1.33;;
7158;SDS011;63175;52.374;13.132;2023-09-19T03:31:20;2.07;;;1.57;;
7158;SDS011;63175;52.374;13.132;2023-09-19T03:33:47;2.03;;;1.50;;
7158;SDS011;63175;52.374;13.132;2023-09-19T03:36:14;1.80;;;1.30;;
7158;SDS011;63175;52.374;13.132;2023-09-19T03:38:41;2.03;;;1.70;;
7158;SDS011;63175;52.374;13.132;2023-09-19T03:41:08;1.63;;;1.33;;
7158;SDS011;63175;52.374;13.132;2023-09-19T03:43:39;1.33;;;1.23;;
7158;SDS011;63175;52.374;13.132;2023-09-19T03:46:07;1.23;;;1.13;;
7158;SDS011;63175;52.374;13.132;2023-09-19T03:48:34;2.40;;;1.30;;
7158;SDS011;63175;52.374;13.132;2023-09-19T03:51:01;1.33;;;1.23;;
7158;SDS011;63175;52.374;13.132;2023-09-19T03:53:28;1.43;;;1.33;;
7158;SDS011;63175;52.374;13.132;2023-09-19T03:55:55;3.03;;;1.60;;
7158;SDS011;63175;52.374;13.132;2023-09-19T03:58:22;1.57;;;1.47;;
7158;SDS011;63175;52.374;13.132;2023-09-19T04:00:49;1.40;;;1.30;;
7158;SDS011;63175;52.374;13.132;2023-09-19T04:03:17;1.67;;;1.40;;
7158;SDS011;63175;52.374;13.132;2023-09-19T04:05:45;1.90;;;1.20;;
7158;SDS011;63175;52.374;13.132;2023-09-19T04:08:13;4.73;;;1.47;;
7158;SDS011;63175;52.374;13.132;2023-09-19T04:10:41;1.60;;;1.50;;
7158;SDS011;63175;52.374;13.132;2023-09-19T04:13:09;2.00;;;1.80;;
7158;SDS011;63175;52.374;13.132;2023-09-19T04:15:36;1.17;;;1.07;;
7158;SDS011;63175;52.374;13.132;2023-09-19T04:18:05;1.17;;;1.10;;
7158;SDS011;63175;52.374;13.132;2023-09-19T04:20:33;1.13;;;1.07;;
7158;SDS011;63175;52.374;13.132;2023-09-19T04:23:00;2.63;;;1.27;;
7158;SDS011;63175;52.374;13.132;2023-09-19T04:25:27;2.80;;;1.30;;
7158;SDS011;63175;52.374;13.132;2023-09-19T04:27:54;1.57;;;1.40;;
7158;SDS011;63175;52.374;13.132;2023-09-19T04:30:20;1.27;;;1.20;;
7158;SDS011;63175;52.374;13.132;2023-09-19T04:32:47;1.50;;;1.17;;
7158;SDS011;63175;52.374;13.132;2023-09-19T04:35:15;8.40;;;1.10;;
7158;SDS011;63175;52.374;13.132;2023-09-19T04:37:44;1.50;;;1.40;;
7158;SDS011;63175;52.374;13.132;2023-09-19T04:40:11;1.63;;;1.10;;
7158;SDS011;63175;52.374;13.132;2023-09-19T04:42:42;2.70;;;1.37;;
7158;SDS011;63175;52.374;13.132;2023-09-19T04:45:09;0.93;;;0.90;;
7158;SDS011;63175;52.374;13.132;2023-09-19T04:47:36;2.60;;;1.20;;
7158;SDS011;63175;52.374;13.132;2023-09-19T04:50:05;2.10;;;1.60;;
7158;SDS011;63175;52.374;13.132;2023-09-19T04:52:37;1.83;;;1.10;;
7158;SDS011;63175;52.374;13.132;2023-09-19T04:55:06;1.63;;;1.20;;
7158;SDS011;63175;52.374;13.132;2023-09-19T04:57:34;1.30;;;0.97;;
7158;SDS011;63175;52.374;13.132;2023-09-19T05:00:02;2.23;;;1.20;;
7158;SDS011;63175;52.374;13.132;2023-09-19T05:02:37;4.00;;;1.27;;
7158;SDS011;63175;52.374;13.132;2023-09-19T05:05:04;2.50;;;1.20;;
7158;SDS011;63175;52.374;13.132;2023-09-19T05:07:33;1.10;;;0.90;;
7158;SDS011;63175;52.374;13.132;2023-09-19T05:10:00;1.53;;;1.40;;
7158;SDS011;63175;52.374;13.132;2023-09-19T05:12:31;6.73;;;1.30;;
7158;SDS011;63175;52.374;13.132;2023-09-19T05:14:59;1.27;;;1.17;;
7158;SDS011;63175;52.374;13.132;2023-09-19T05:17:26;1.60;;;1.50;;
7158;SDS011;63175;52.374;13.132;2023-09-19T05:19:53;1.60;;;1.50;;
7158;SDS011;63175;52.374;13.132;2023-09-19T05:22:20;1.43;;;1.33;;
7158;SDS011;63175;52.374;13.132;2023-09-19T05:24:47;1.50;;;1.40;;
7158;SDS011;63175;52.374;13.132;2023-09-19T05:27:14;2.40;;;1.50;;
7158;SDS011;63175;52.374;13.132;2023-09-19T05:29:43;3.43;;;1.40;;
7158;SDS011;63175;52.374;13.132;2023-09-19T05:32:10;1.53;;;1.33;;
7158;SDS011;63175;52.374;13.132;2023-09-19T05:34:37;1.20;;;1.10;;
7158;SDS011;63175;52.374;13.132;2023-09-19T05:37:04;1.60;;;1.40;;
7158;SDS011;63175;52.374;13.132;2023-09-19T05:39:32;2.43;;;1.67;;
7158;SDS011;63175;52.374;13.132;2023-09-19T05:41:59;1.27;;;1.17;;
7158;SDS011;63175;52.374;13.132;2023-09-19T05:44:26;3.90;;;1.40;;
7158;SDS011;63175;52.374;13.132;2023-09-19T05:46:54;0.87;;;0.87;;
7158;SDS011;63175;52.374;13.132;2023-09-19T05:49:22;2.10;;;1.60;;
7158;SDS011;63175;52.374;13.132;2023-09-19T05:51:50;2.13;;;1.20;;
7158;SDS011;63175;52.374;13.132;2023-09-19T05:54:19;2.20;;;1.47;;
7158;SDS011;63175;52.374;13.132;2023-09-19T05:56:46;1.30;;;1.20;;
7158;SDS011;63175;52.374;13.132;2023-09-19T05:59:13;1.10;;;1.00;;
7158;SDS011;63175;52.374;13.132;2023-09-19T06:01:41;1.77;;;1.00;;
7158;SDS011;63175;52.374;13.132;2023-09-19T06:04:09;1.67;;;1.40;;
7158;SDS011;63175;52.374;13.132;2023-09-19T06:06:36;1.57;;;1.43;;
7158;SDS011;63175;52.374;13.132;2023-09-19T06:09:05;1.50;;;1.20;;
7158;SDS011;63175;52.374;13.132;2023-09-19T06:11:33;1.60;;;1.50;;
7158;SDS011;63175;52.374;13.132;2023-09-19T06:14:00;1.47;;;1.30;;
7158;SDS011;63175;52.374;13.132;2023-09-19T06:16:28;1.70;;;1.40;;
7158;SDS011;63175;52.374;13.132;2023-09-19T06:18:55;1.60;;;1.50;;
7158;SDS011;63175;52.374;13.132;2023-09-19T06:21:23;1.50;;;1.30;;
7158;SDS011;63175;52.374;13.132;2023-09-19T06:23:50;3.17;;;1.73;;
7158;SDS011;63175;52.374;13.132;2023-09-19T06:26:17;1.33;;;1.23;;
7158;SDS011;63175;52.374;13.132;2023-09-19T06:28:44;2.10;;;1.90;;
7158;SDS011;63175;52.374;13.132;2023-09-19T06:31:11;3.90;;;1.60;;
7158;SDS011;63175;52.374;13.132;2023-09-19T06:33:38;1.93;;;1.70;;
7158;SDS011;63175;52.374;13.132;2023-09-19T06:36:05;4.37;;;2.07;;
7158;SDS011;63175;52.374;13.132;2023-09-19T06:38:34;2.40;;;1.47;;
7158;SDS011;63175;52.374;13.132;2023-09-19T06:41:01;6.20;;;2.07;;
7158;SDS011;63175;52.374;13.132;2023-09-19T06:43:30;2.37;;;1.70;;
7158;SDS011;63175;52.374;13.132;2023-09-19T06:45:57;2.23;;;2.03;;
7158;SDS011;63175;52.374;13.132;2023-09-19T06:48:25;5.83;;;2.57;;
7158;SDS011;63175;52.374;13.132;2023-09-19T06:50:52;2.80;;;1.20;;
7158;SDS011;63175;52.374;13.132;2023-09-19T06:53:20;3.03;;;1.40;;
7158;SDS011;63175;52.374;13.132;2023-09-19T06:55:48;2.67;;;1.30;;
7158;SDS011;63175;52.374;13.132;2023-09-19T06:58:16;3.40;;;2.07;;
7158;SDS011;63175;52.374;13.132;2023-09-19T07:00:42;3.27;;;1.60;;
7158;SDS011;63175;52.374;13.132;2023-09-19T07:03:09;1.97;;;1.60;;
7158;SDS011;63175;52.374;13.132;2023-09-19T07:05:37;4.73;;;1.60;;
7158;SDS011;63175;52.374;13.132;2023-09-19T07:08:05;1.60;;;1.50;;
7158;SDS011;63175;52.374;13.132;2023-09-19T07:10:32;3.00;;;2.00;;
7158;SDS011;63175;52.374;13.132;2023-09-19T07:13:01;2.70;;;1.70;;
7158;SDS011;63175;52.374;13.132;2023-09-19T07:15:31;4.57;;;2.43;;
7158;SDS011;63175;52.374;13.132;2023-09-19T07:18:01;2.70;;;2.00;;
7158;SDS011;63175;52.374;13.132;2023-09-19T07:20:29;2.87;;;1.80;;
7158;SDS011;63175;52.374;13.132;2023-09-19T07:22:57;3.20;;;1.60;;
7158;SDS011;63175;52.374;13.132;2023-09-19T07:25:25;7.43;;;1.87;;
7158;SDS011;63175;52.374;13.132;2023-09-19T07:27:54;2.67;;;1.77;;
7158;SDS011;63175;52.374;13.132;2023-09-19T07:30:23;3.60;;;2.10;;
7158;SDS011;63175;52.374;13.132;2023-09-19T07:32:50;2.53;;;2.10;;
7158;SDS011;63175;52.374;13.132;2023-09-19T07:35:17;6.50;;;1.80;;
7158;SDS011;63175;52.374;13.132;2023-09-19T07:37:45;3.57;;;2.10;;
7158;SDS011;63175;52.374;13.132;2023-09-19T07:40:14;6.70;;;1.70;;
7158;SDS011;63175;52.374;13.132;2023-09-19T07:42:41;2.90;;;1.97;;
7158;SDS011;63175;52.374;13.132;2023-09-19T07:45:09;2.20;;;1.77;;
7158;SDS011;63175;52.374;13.132;2023-09-19T07:47:40;3.90;;;1.90;;
7158;SDS011;63175;52.374;13.132;2023-09-19T07:50:10;3.90;;;1.93;;
7158;SDS011;63175;52.374;13.132;2023-09-19T07:52:37;1.70;;;1.50;;
7158;SDS011;63175;52.374;13.132;2023-09-19T07:55:05;2.43;;;2.20;;
7158;SDS011;63175;52.374;13.132;2023-09-19T07:57:34;2.03;;;1.83;;
7158;SDS011;63175;52.374;13.132;2023-09-19T08:00:01;6.50;;;2.50;;
7158;SDS011;63175;52.374;13.132;2023-09-19T08:02:30;5.23;;;1.80;;
7158;SDS011;63175;52.374;13.132;2023-09-19T08:05:01;5.57;;;2.10;;
7158;SDS011;63175;52.374;13.132;2023-09-19T08:07:31;5.10;;;2.23;;
7158;SDS011;63175;52.374;13.132;2023-09-19T08:09:58;3.13;;;2.20;;
7158;SDS011;63175;52.374;13.132;2023-09-19T08:12:25;4.13;;;2.10;;
7158;SDS011;63175;52.374;13.132;2023-09-19T08:14:52;3.57;;;2.20;;
7158;SDS011;63175;52.374;13.132;2023-09-19T08:17:20;3.40;;;2.00;;
7158;SDS011;63175;52.374;13.132;2023-09-19T08:19:48;2.10;;;1.73;;
7158;SDS011;63175;52.374;13.132;2023-09-19T08:22:19;2.97;;;1.60;;
7158;SDS011;63175;52.374;13.132;2023-09-19T08:24:46;3.60;;;1.80;;
7158;SDS011;63175;52.374;13.132;2023-09-19T08:27:14;5.37;;;2.30;;
7158;SDS011;63175;52.374;13.132;2023-09-19T08:29:43;2.50;;;1.80;;
7158;SDS011;63175;52.374;13.132;2023-09-19T08:32:11;2.03;;;1.50;;
7158;SDS011;63175;52.374;13.132;2023-09-19T08:34:38;3.73;;;1.80;;
7158;SDS011;63175;52.374;13.132;2023-09-19T08:37:05;9.00;;;2.43;;
7158;SDS011;63175;52.374;13.132;2023-09-19T08:39:33;4.13;;;2.07;;
7158;SDS011;63175;52.374;13.132;2023-09-19T08:42:02;3.17;;;2.00;;
7158;SDS011;63175;52.374;13.132;2023-09-19T08:44:29;1.83;;;1.70;;
7158;SDS011;63175;52.374;13.132;2023-09-19T08:46:59;3.13;;;2.00;;
7158;SDS011;63175;52.374;13.132;2023-09-19T08:49:36;5.50;;;2.67;;
7158;SDS011;63175;52.374;13.132;2023-09-19T08:52:10;2.30;;;2.10;;
7158;SDS011;63175;52.374;13.132;2023-09-19T08:54:44;5.83;;;2.40;;
7158;SDS011;63175;52.374;13.132;2023-09-19T08:57:13;4.30;;;2.00;;
7158;SDS011;63175;52.374;13.132;2023-09-19T08:59:46;2.93;;;2.20;;
7158;SDS011;63175;52.374;13.132;2023-09-19T09:02:16;3.73;;;1.80;;
7158;SDS011;63175;52.374;13.132;2023-09-19T09:04:43;2.63;;;2.40;;
7158;SDS011;63175;52.374;13.132;2023-09-19T09:07:11;7.27;;;2.20;;
7158;SDS011;63175;52.374;13.132;2023-09-19T09:09:39;6.30;;;2.43;;
7158;SDS011;63175;52.374;13.132;2023-09-19T09:12:09;3.87;;;1.70;;
7158;SDS011;63175;52.374;13.132;2023-09-19T09:14:38;3.70;;;2.07;;
7158;SDS011;63175;52.374;13.132;2023-09-19T09:17:06;5.57;;;1.87;;
7158;SDS011;63175;52.374;13.132;2023-09-19T09:19:33;2.37;;;1.73;;
7158;SDS011;63175;52.374;13.132;2023-09-19T09:22:07;4.60;;;2.00;;
7158;SDS011;63175;52.374;13.132;2023-09-19T09:24:35;5.57;;;1.83;;
7158;SDS011;63175;52.374;13.132;2023-09-19T09:27:04;1.67;;;1.50;;
7158;SDS011;63175;52.374;13.132;2023-09-19T09:29:41;2.13;;;1.80;;
7158;SDS011;63175;52.374;13.132;2023-09-19T09:35:31;4.83;;;1.70;;
7158;SDS011;63175;52.374;13.132;2023-09-19T09:37:59;13.73;;;2.50;;
7158;SDS011;63175;52.374;13.132;2023-09-19T09:40:29;5.87;;;2.30;;
7158;SDS011;63175;52.374;13.132;2023-09-19T09:43:24;2.97;;;2.03;;
7158;SDS011;63175;52.374;13.132;2023-09-19T09:46:06;3.40;;;2.47;;
7158;SDS011;63175;52.374;13.132;2023-09-19T09:48:56;2.47;;;2.17;;
7158;SDS011;63175;52.374;13.132;2023-09-19T09:51:38;3.63;;;2.20;;
7158;SDS011;63175;52.374;13.132;2023-09-19T09:54:10;2.20;;;2.00;;
7158;SDS011;63175;52.374;13.132;2023-09-19T09:56:51;6.03;;;2.90;;
7158;SDS011;63175;52.374;13.132;2023-09-19T10:02:12;3.50;;;2.20;;
7158;SDS011;63175;52.374;13.132;2023-09-19T10:04:45;4.90;;;1.93;;
7158;SDS011;63175;52.374;13.132;2023-09-19T10:07:26;3.63;;;2.13;;
7158;SDS011;63175;52.374;13.132;2023-09-19T10:09:57;4.03;;;2.27;;
7158;SDS011;63175;52.374;13.132;2023-09-19T10:12:34;3.07;;;2.03;;
7158;SDS011;63175;52.374;13.132;2023-09-19T10:15:04;2.77;;;2.07;;
7158;SDS011;63175;52.374;13.132;2023-09-19T10:17:37;3.80;;;2.20;;
7158;SDS011;63175;52.374;13.132;2023-09-19T10:20:08;3.43;;;2.40;;
7158;SDS011;63175;52.374;13.132;2023-09-19T10:22:47;5.77;;;2.30;;
7158;SDS011;63175;52.374;13.132;2023-09-19T10:25:22;2.83;;;2.30;;
7158;SDS011;63175;52.374;13.132;2023-09-19T10:27:53;3.03;;;2.20;;
7158;SDS011;63175;52.374;13.132;2023-09-19T10:30:22;4.87;;;2.40;;
7158;SDS011;63175;52.374;13.132;2023-09-19T10:32:54;4.40;;;2.10;;
7158;SDS011;63175;52.374;13.132;2023-09-19T10:35:24;4.90;;;2.70;;
7158;SDS011;63175;52.374;13.132;2023-09-19T10:37:52;4.23;;;1.70;;
7158;SDS011;63175;52.374;13.132;2023-09-19T10:40:23;3.40;;;2.00;;
7158;SDS011;63175;52.374;13.132;2023-09-19T10:42:56;2.83;;;2.17;;
7158;SDS011;63175;52.374;13.132;2023-09-19T10:45:30;6.50;;;2.10;;
7158;SDS011;63175;52.374;13.132;2023-09-19T10:47:59;4.60;;;2.63;;
7158;SDS011;63175;52.374;13.132;2023-09-19T10:50:28;4.60;;;2.17;;
7158;SDS011;63175;52.374;13.132;2023-09-19T10:52:59;3.37;;;2.30;;
7158;SDS011;63175;52.374;13.132;2023-09-19T10:55:30;5.20;;;2.60;;
7158;SDS011;63175;52.374;13.132;2023-09-19T10:58:00;5.03;;;2.10;;
7158;SDS011;63175;52.374;13.132;2023-09-19T11:00:30;4.80;;;1.87;;
7158;SDS011;63175;52.374;13.132;2023-09-19T11:03:20;5.70;;;2.73;;
7158;SDS011;63175;52.374;13.132;2023-09-19T11:06:02;6.53;;;2.27;;
7158;SDS011;63175;52.374;13.132;2023-09-19T11:08:54;5.90;;;2.33;;
7158;SDS011;63175;52.374;13.132;2023-09-19T11:11:42;8.70;;;2.30;;
7158;SDS011;63175;52.374;13.132;2023-09-19T11:14:14;5.40;;;1.97;;
7158;SDS011;63175;52.374;13.132;2023-09-19T11:26:02;4.73;;;1.73;;
7158;SDS011;63175;52.374;13.132;2023-09-19T11:28:30;5.27;;;2.47;;
7158;SDS011;63175;52.374;13.132;2023-09-19T11:30:56;3.13;;;2.00;;
7158;SDS011;63175;52.374;13.132;2023-09-19T11:33:24;8.40;;;2.30;;
7158;SDS011;63175;52.374;13.132;2023-09-19T11:36:03;3.13;;;1.80;;
7158;SDS011;63175;52.374;13.132;2023-09-19T11:41:37;3.50;;;2.27;;
7158;SDS011;63175;52.374;13.132;2023-09-19T11:47:00;4.43;;;2.30;;
7158;SDS011;63175;52.374;13.132;2023-09-19T11:49:29;3.17;;;1.77;;
7158;SDS011;63175;52.374;13.132;2023-09-19T11:51:57;3.03;;;1.90;;
7158;SDS011;63175;52.374;13.132;2023-09-19T11:54:31;3.10;;;1.60;;
7158;SDS011;63175;52.374;13.132;2023-09-19T11:56:58;3.53;;;1.70;;
7158;SDS011;63175;52.374;13.132;2023-09-19T11:59:26;8.03;;;1.70;;
7158;SDS011;63175;52.374;13.132;2023-09-19T12:01:55;5.93;;;1.67;;
7158;SDS011;63175;52.374;13.132;2023-09-19T12:04:36;7.23;;;1.90;;
7158;SDS011;63175;52.374;13.132;2023-09-19T12:07:04;3.67;;;2.30;;
7158;SDS011;63175;52.374;13.132;2023-09-19T12:09:38;2.67;;;1.93;;
7158;SDS011;63175;52.374;13.132;2023-09-19T12:12:09;4.03;;;1.70;;
7158;SDS011;63175;52.374;13.132;2023-09-19T12:14:37;2.03;;;1.50;;
7158;SDS011;63175;52.374;13.132;2023-09-19T12:17:07;4.47;;;1.73;;
7158;SDS011;63175;52.374;13.132;2023-09-19T12:19:34;2.60;;;1.70;;
7158;SDS011;63175;52.374;13.132;2023-09-19T12:22:01;3.80;;;1.77;;
7158;SDS011;63175;52.374;13.132;2023-09-19T12:24:30;5.33;;;2.30;;
7158;SDS011;63175;52.374;13.132;2023-09-19T12:27:03;3.03;;;1.90;;
7158;SDS011;63175;52.374;13.132;2023-09-19T12:29:31;3.03;;;1.70;;
7158;SDS011;63175;52.374;13.132;2023-09-19T12:32:07;2.57;;;1.83;;
7158;SDS011;63175;52.374;13.132;2023-09-19T12:34:34;2.70;;;1.50;;
7158;SDS011;63175;52.374;13.132;2023-09-19T12:37:07;3.97;;;1.93;;
7158;SDS011;63175;52.374;13.132;2023-09-19T12:39:40;1.67;;;1.20;;
7158;SDS011;63175;52.374;13.132;2023-09-19T12:42:11;1.60;;;1.50;;
7158;SDS011;63175;52.374;13.132;2023-09-19T12:44:40;2.83;;;1.47;;
7158;SDS011;63175;52.374;13.132;2023-09-19T12:47:10;7.13;;;2.30;;
7158;SDS011;63175;52.374;13.132;2023-09-19T12:52:35;4.13;;;1.80;;
7158;SDS011;63175;52.374;13.132;2023-09-19T12:55:03;3.27;;;1.33;;
7158;SDS011;63175;52.374;13.132;2023-09-19T12:57:33;1.70;;;1.53;;
7158;SDS011;63175;52.374;13.132;2023-09-19T13:00:00;2.03;;;1.40;;
7158;SDS011;63175;52.374;13.132;2023-09-19T13:02:27;4.33;;;1.47;;
7158;SDS011;63175;52.374;13.132;2023-09-19T13:04:54;5.53;;;1.77;;
7158;SDS011;63175;52.374;13.132;2023-09-19T13:07:39;5.37;;;1.73;;
7158;SDS011;63175;52.374;13.132;2023-09-19T13:10:10;1.77;;;1.17;;
7158;SDS011;63175;52.374;13.132;2023-09-19T13:12:42;2.10;;;1.33;;
7158;SDS011;63175;52.374;13.132;2023-09-19T13:15:12;15.27;;;1.90;;
7158;SDS011;63175;52.374;13.132;2023-09-19T13:17:45;2.30;;;1.40;;
7158;SDS011;63175;52.374;13.132;2023-09-19T13:20:23;3.77;;;2.20;;
7158;SDS011;63175;52.374;13.132;2023-09-19T13:23:04;2.10;;;1.90;;
7158;SDS011;63175;52.374;13.132;2023-09-19T13:25:35;4.73;;;1.77;;
7158;SDS011;63175;52.374;13.132;2023-09-19T13:28:06;3.40;;;1.60;;
7158;SDS011;63175;52.374;13.132;2023-09-19T13:30:33;3.27;;;1.67;;
7158;SDS011;63175;52.374;13.132;2023-09-19T13:33:08;6.70;;;2.23;;
7158;SDS011;63175;52.374;13.132;2023-09-19T13:35:35;2.27;;;1.57;;
7158;SDS011;63175;52.374;13.132;2023-09-19T13:38:03;1.57;;;1.43;;
7158;SDS011;63175;52.374;13.132;2023-09-19T13:40:31;2.77;;;1.40;;
7158;SDS011;63175;52.374;13.132;2023-09-19T13:43:00;2.87;;;1.60;;
7158;SDS011;63175;52.374;13.132;2023-09-19T13:45:28;2.30;;;1.33;;
7158;SDS011;63175;52.374;13.132;2023-09-19T13:47:55;1.70;;;1.60;;
7158;SDS011;63175;52.374;13.132;2023-09-19T13:50:22;2.17;;;1.60;;
7158;SDS011;63175;52.374;13.132;2023-09-19T13:52:50;2.70;;;1.43;;
7158;SDS011;63175;52.374;13.132;2023-09-19T13:55:18;6.07;;;1.80;;
7158;SDS011;63175;52.374;13.132;2023-09-19T13:57:45;2.60;;;1.30;;
7158;SDS011;63175;52.374;13.132;2023-09-19T14:00:15;1.33;;;1.10;;
7158;SDS011;63175;52.374;13.132;2023-09-19T14:02:44;1.50;;;1.40;;
7158;SDS011;63175;52.374;13.132;2023-09-19T14:05:12;11.03;;;1.57;;
7158;SDS011;63175;52.374;13.132;2023-09-19T14:07:40;4.53;;;1.60;;
7158;SDS011;63175;52.374;13.132;2023-09-19T14:10:07;3.10;;;2.03;;
7158;SDS011;63175;52.374;13.132;2023-09-19T14:12:35;1.53;;;1.43;;
7158;SDS011;63175;52.374;13.132;2023-09-19T14:15:03;5.03;;;2.10;;
7158;SDS011;63175;52.374;13.132;2023-09-19T14:17:30;7.13;;;1.70;;
7158;SDS011;63175;52.374;13.132;2023-09-19T14:19:59;1.83;;;1.53;;
7158;SDS011;63175;52.374;13.132;2023-09-19T14:22:26;1.67;;;1.30;;
7158;SDS011;63175;52.374;13.132;2023-09-19T14:24:52;4.03;;;1.97;;
7158;SDS011;63175;52.374;13.132;2023-09-19T14:27:19;3.33;;;1.67;;
7158;SDS011;63175;52.374;13.132;2023-09-19T14:29:46;4.27;;;1.80;;
7158;SDS011;63175;52.374;13.132;2023-09-19T14:32:13;2.47;;;1.70;;
7158;SDS011;63175;52.374;13.132;2023-09-19T14:34:40;4.10;;;1.50;;
7158;SDS011;63175;52.374;13.132;2023-09-19T14:37:09;4.33;;;1.90;;
7158;SDS011;63175;52.374;13.132;2023-09-19T14:39:36;4.77;;;1.93;;
7158;SDS011;63175;52.374;13.132;2023-09-19T14:42:03;1.77;;;1.63;;
7158;SDS011;63175;52.374;13.132;2023-09-19T14:44:30;1.73;;;1.40;;
7158;SDS011;63175;52.374;13.132;2023-09-19T14:46:58;4.77;;;1.87;;
7158;SDS011;63175;52.374;13.132;2023-09-19T14:49:25;3.80;;;1.77;;
7158;SDS011;63175;52.374;13.132;2023-09-19T14:51:52;4.43;;;1.90;;
7158;SDS011;63175;52.374;13.132;2023-09-19T14:54:20;2.03;;;1.80;;
7158;SDS011;63175;52.374;13.132;2023-09-19T14:56:48;5.07;;;2.00;;
7158;SDS011;63175;52.374;13.132;2023-09-19T14:59:28;2.63;;;1.90;;
7158;SDS011;63175;52.374;13.132;2023-09-19T15:01:56;3.20;;;2.03;;
7158;SDS011;63175;52.374;13.132;2023-09-19T15:04:23;4.30;;;2.10;;
7158;SDS011;63175;52.374;13.132;2023-09-19T15:06:50;3.40;;;1.67;;
7158;SDS011;63175;52.374;13.132;2023-09-19T15:09:21;3.20;;;2.03;;
7158;SDS011;63175;52.374;13.132;2023-09-19T15:11:51;2.97;;;1.80;;
7158;SDS011;63175;52.374;13.132;2023-09-19T15:14:18;3.27;;;1.80;;
7158;SDS011;63175;52.374;13.132;2023-09-19T15:16:45;4.53;;;1.60;;
7158;SDS011;63175;52.374;13.132;2023-09-19T15:19:13;3.77;;;1.93;;
7158;SDS011;63175;52.374;13.132;2023-09-19T15:21:40;9.90;;;2.43;;
7158;SDS011;63175;52.374;13.132;2023-09-19T15:24:07;2.53;;;1.60;;
7158;SDS011;63175;52.374;13.132;2023-09-19T15:26:36;3.27;;;1.97;;